Time;durP1;ratioP1;P1;durP2;ratioP2;P2;SDS_P1;SDS_P2;PMS_P1;PMS_P2;Temp;Humidity;BMP_temperature;BMP_pressure;BME280_temperature;BME280_humidity;BME280_pressure;Samples;Min_cycle;Max_cycle;Signal;HPM_P1;HPM_P2
2022/09/01 00:00:40;;;;;;;2.88;0.35;;;21.00;65.10;;;;;;5032862;28;20444;-83
2022/09/01 00:03:09;;;;;;;0.82;0.20;;;21.00;65.20;;;;;;5033156;28;20037;-82
2022/09/01 00:05:35;;;;;;;1.17;0.10;;;20.80;65.50;;;;;;5032688;28;20095;-83
2022/09/01 00:08:02;;;;;;;0.60;0.20;;;20.80;65.70;;;;;;5032913;28;20068;-83
2022/09/01 00:10:27;;;;;;;0.68;0.20;;;20.80;65.60;;;;;;5032722;28;20068;-83
2022/09/01 00:12:53;;;;;;;1.70;0.30;;;20.90;65.40;;;;;;5033050;28;20045;-81
2022/09/01 00:15:19;;;;;;;2.08;0.30;;;20.80;65.40;;;;;;5032604;28;20039;-81
2022/09/01 00:17:45;;;;;;;2.00;0.30;;;20.60;65.90;;;;;;5032771;28;20477;-81
2022/09/01 00:20:10;;;;;;;2.83;0.30;;;20.60;66.00;;;;;;5032897;28;20079;-80
2022/09/01 00:22:36;;;;;;;1.67;0.10;;;20.60;66.00;;;;;;5032881;28;20029;-83
2022/09/01 00:25:02;;;;;;;0.85;0.10;;;20.70;66.00;;;;;;5032645;28;20044;-83
2022/09/01 00:27:28;;;;;;;0.90;0.30;;;20.70;65.80;;;;;;5032707;28;20052;-83
2022/09/01 00:29:54;;;;;;;1.02;0.20;;;20.80;65.60;;;;;;5032344;28;20461;-83
2022/09/01 00:32:19;;;;;;;0.85;0.20;;;20.70;65.60;;;;;;5033092;28;20032;-84
2022/09/01 00:34:45;;;;;;;0.60;0.20;;;20.70;65.70;;;;;;5036174;28;20033;-83
2022/09/01 00:37:11;;;;;;;0.70;0.20;;;20.80;65.70;;;;;;5036257;28;20040;-83
2022/09/01 00:39:36;;;;;;;1.10;0.10;;;21.00;65.30;;;;;;5036010;28;20481;-83
2022/09/01 00:42:02;;;;;;;2.03;0.30;;;21.00;65.30;;;;;;5036343;28;20059;-83
2022/09/01 00:44:28;;;;;;;0.47;0.10;;;21.10;64.90;;;;;;5036015;28;20489;-83
2022/09/01 00:46:55;;;;;;;1.25;0.38;;;21.10;64.70;;;;;;5036203;28;20033;-83
2022/09/01 00:49:44;;;;;;;0.82;0.20;;;21.10;64.80;;;;;;5035865;28;20430;-83
2022/09/01 00:52:18;;;;;;;1.40;0.20;;;21.20;64.70;;;;;;5035865;28;20029;-83
2022/09/01 00:54:51;;;;;;;1.15;0.20;;;21.20;64.50;;;;;;5035539;28;20028;-84
2022/09/01 00:57:17;;;;;;;1.35;0.28;;;21.20;64.50;;;;;;5035970;28;20033;-82
2022/09/01 00:59:48;;;;;;;3.30;0.70;;;21.20;64.40;;;;;;5036037;28;20152;-83
2022/09/01 01:02:15;;;;;;;1.00;0.30;;;21.20;64.10;;;;;;5035917;28;20025;-82
2022/09/01 01:04:42;;;;;;;1.63;0.20;;;20.90;64.70;;;;;;5035727;28;20397;-81
2022/09/01 01:07:09;;;;;;;0.77;0.20;;;20.80;64.90;;;;;;5035511;28;20108;-81
2022/09/01 01:09:40;;;;;;;2.30;0.20;;;20.80;65.40;;;;;;5035800;28;20384;-82
2022/09/01 01:12:07;;;;;;;1.30;0.20;;;20.80;65.30;;;;;;5035470;28;20025;-81
2022/09/01 01:14:35;;;;;;;0.60;0.20;;;20.90;65.70;;;;;;5035488;28;20063;-82
2022/09/01 01:17:01;;;;;;;0.50;0.20;;;20.80;64.80;;;;;;5035533;28;20036;-82
2022/09/01 01:23:01;;;;;;;0.70;0.22;;;20.90;64.60;;;;;;5035416;28;20084;-82
2022/09/01 01:25:29;;;;;;;1.17;0.10;;;20.80;64.50;;;;;;5035125;28;20052;-81
2022/09/01 01:28:12;;;;;;;1.30;0.30;;;20.90;65.00;;;;;;5035064;28;20393;-82
2022/09/01 01:30:40;;;;;;;3.03;0.30;;;21.00;65.00;;;;;;5035453;28;20021;-82
2022/09/01 01:33:07;;;;;;;0.70;0.15;;;21.10;64.10;;;;;;5034996;28;20386;-82
2022/09/01 01:35:33;;;;;;;1.63;0.28;;;21.20;64.60;;;;;;5035232;28;20106;-82
2022/09/01 01:38:00;;;;;;;1.80;0.40;;;21.20;64.10;;;;;;5034937;28;20108;-82
2022/09/01 01:40:28;;;;;;;0.57;0.10;;;21.20;64.10;;;;;;5035035;28;20045;-82
2022/09/01 01:42:56;;;;;;;0.55;0.17;;;21.20;64.30;;;;;;5034849;28;20473;-82
2022/09/01 01:45:23;;;;;;;2.35;0.20;;;21.30;64.00;;;;;;5034884;28;20037;-82
2022/09/01 01:47:53;;;;;;;0.77;0.28;;;21.20;63.60;;;;;;5034989;28;20120;-82
2022/09/01 01:50:34;;;;;;;0.75;0.22;;;21.10;63.00;;;;;;5034947;28;20033;-82
2022/09/01 01:53:05;;;;;;;0.80;0.20;;;21.10;63.50;;;;;;5034792;28;20025;-81
2022/09/01 01:55:31;;;;;;;0.60;0.20;;;21.10;64.10;;;;;;5034827;28;20056;-83
2022/09/01 01:57:57;;;;;;;2.72;0.20;;;21.20;63.30;;;;;;5034593;28;20410;-82
2022/09/01 02:00:28;;;;;;;4.43;0.20;;;21.20;63.50;;;;;;5034914;28;20035;-82
2022/09/01 02:02:54;;;;;;;0.57;0.10;;;21.20;62.80;;;;;;5034874;28;20075;-82
2022/09/01 02:05:28;;;;;;;0.73;0.20;;;21.10;62.50;;;;;;5034427;28;20040;-82
2022/09/01 02:07:58;;;;;;;2.05;0.38;;;21.00;62.10;;;;;;5034295;28;20040;-82
2022/09/01 02:10:30;;;;;;;1.33;0.30;;;21.00;60.50;;;;;;5034756;28;20021;-82
2022/09/01 02:13:05;;;;;;;0.57;0.20;;;20.70;61.50;;;;;;5034771;28;20026;-82
2022/09/01 02:15:37;;;;;;;1.13;0.20;;;20.70;61.80;;;;;;5034350;28;20476;-82
2022/09/01 02:18:03;;;;;;;0.93;0.20;;;20.70;61.80;;;;;;5034714;28;20056;-82
2022/09/01 02:20:28;;;;;;;2.47;0.13;;;20.70;61.70;;;;;;5034334;28;20430;-82
2022/09/01 02:23:08;;;;;;;1.35;0.20;;;20.80;62.60;;;;;;5034603;28;20022;-82
2022/09/01 02:25:34;;;;;;;1.58;0.25;;;20.90;61.50;;;;;;5034039;28;20046;-81
2022/09/01 02:28:02;;;;;;;0.60;0.20;;;20.70;60.10;;;;;;5034135;28;20071;-81
2022/09/01 02:30:31;;;;;;;1.58;0.20;;;20.60;61.00;;;;;;5033847;28;20022;-81
2022/09/01 02:32:58;;;;;;;2.53;0.20;;;20.60;61.00;;;;;;5033966;28;20091;-82
2022/09/01 02:35:27;;;;;;;1.80;0.20;;;20.60;61.90;;;;;;5034166;28;20079;-82
2022/09/01 02:37:59;;;;;;;0.82;0.20;;;20.70;62.00;;;;;;5034263;28;20021;-81
2022/09/01 02:40:29;;;;;;;1.20;0.20;;;20.60;61.00;;;;;;5033911;28;20540;-81
2022/09/01 02:42:55;;;;;;;1.27;0.17;;;20.70;62.00;;;;;;5033721;28;20034;-81
2022/09/01 02:45:22;;;;;;;1.45;0.10;;;20.70;61.90;;;;;;5033699;28;20065;-81
2022/09/01 02:47:49;;;;;;;2.05;0.22;;;20.80;61.80;;;;;;5034013;28;20036;-81
2022/09/01 02:50:17;;;;;;;1.92;0.10;;;20.80;61.90;;;;;;5033943;28;20048;-81
2022/09/01 02:52:48;;;;;;;0.95;0.28;;;20.90;61.60;;;;;;5033597;28;20029;-81
2022/09/01 02:55:18;;;;;;;1.83;0.55;;;20.80;61.20;;;;;;5033548;28;20082;-81
2022/09/01 02:57:47;;;;;;;1.60;0.20;;;20.80;61.90;;;;;;5033556;28;20026;-81
2022/09/01 03:00:27;;;;;;;1.33;0.30;;;20.80;61.70;;;;;;5033871;28;20025;-81
2022/09/01 03:02:55;;;;;;;2.42;0.25;;;20.80;61.20;;;;;;5033700;28;20025;-81
2022/09/01 03:05:27;;;;;;;2.05;0.15;;;20.60;61.00;;;;;;5033214;28;20038;-81
2022/09/01 03:07:56;;;;;;;1.73;0.20;;;20.40;61.70;;;;;;5033826;28;20080;-81
2022/09/01 03:10:30;;;;;;;1.23;0.20;;;20.50;61.60;;;;;;5033316;28;20022;-82
2022/09/01 03:12:58;;;;;;;1.40;0.20;;;20.40;61.70;;;;;;5033384;28;20030;-81
2022/09/01 03:15:24;;;;;;;0.82;0.22;;;20.40;61.50;;;;;;5033558;28;20033;-81
2022/09/01 03:17:50;;;;;;;1.42;0.38;;;20.40;62.00;;;;;;5033083;28;20028;-81
2022/09/01 03:20:18;;;;;;;1.58;0.20;;;20.40;62.00;;;;;;5033348;28;20060;-81
2022/09/01 03:22:44;;;;;;;1.38;0.20;;;20.30;61.40;;;;;;5033493;28;20037;-81
2022/09/01 03:25:09;;;;;;;1.80;0.43;;;20.20;61.70;;;;;;5032923;28;20045;-81
2022/09/01 03:27:35;;;;;;;3.17;0.30;;;20.20;61.50;;;;;;5032927;28;20113;-81
2022/09/01 03:30:00;;;;;;;2.40;0.20;;;20.00;61.30;;;;;;5033391;28;20029;-80
2022/09/01 03:32:26;;;;;;;1.55;0.20;;;20.00;62.10;;;;;;5033406;28;20354;-81
2022/09/01 03:34:51;;;;;;;0.50;0.10;;;20.00;62.20;;;;;;5033037;28;20022;-81
2022/09/01 03:37:19;;;;;;;1.15;0.20;;;20.00;62.40;;;;;;5033047;28;20014;-81
2022/09/01 03:39:45;;;;;;;0.73;0.25;;;20.00;63.10;;;;;;5033228;28;20030;-81
2022/09/01 03:42:18;;;;;;;1.58;0.30;;;20.00;62.60;;;;;;5033234;28;20493;-81
2022/09/01 03:44:43;;;;;;;0.68;0.20;;;20.00;62.90;;;;;;5033424;28;20099;-81
2022/09/01 03:47:09;;;;;;;0.77;0.20;;;20.10;62.80;;;;;;5033029;28;20489;-81
2022/09/01 03:49:38;;;;;;;0.88;0.10;;;20.00;62.60;;;;;;5033010;28;20026;-82
2022/09/01 03:52:07;;;;;;;1.70;0.20;;;20.10;63.10;;;;;;5033206;28;20030;-81
2022/09/01 03:54:33;;;;;;;0.80;0.30;;;20.20;63.10;;;;;;5032879;28;20053;-81
2022/09/01 03:56:59;;;;;;;3.63;0.30;;;20.00;61.70;;;;;;5032931;28;20046;-81
2022/09/01 03:59:25;;;;;;;2.22;0.32;;;19.90;61.70;;;;;;5033158;28;20033;-81
2022/09/01 04:01:51;;;;;;;1.50;0.30;;;19.70;62.10;;;;;;5032968;28;20037;-81
2022/09/01 04:04:17;;;;;;;2.08;0.75;;;19.40;62.40;;;;;;5032938;28;20100;-81
2022/09/01 04:06:44;;;;;;;4.47;0.32;;;19.20;62.70;;;;;;5032710;28;20048;-81
2022/09/01 04:09:11;;;;;;;1.48;0.30;;;19.00;63.00;;;;;;5036181;28;20030;-81
2022/09/01 04:11:38;;;;;;;0.90;0.17;;;19.00;63.80;;;;;;5036965;28;20033;-81
2022/09/01 04:14:05;;;;;;;0.98;0.20;;;19.10;63.90;;;;;;5036841;28;20025;-81
2022/09/01 04:19:25;;;;;;;1.05;0.28;;;19.10;63.10;;;;;;5036741;28;20539;-81
2022/09/01 04:21:59;;;;;;;1.10;0.28;;;19.20;62.70;;;;;;5036516;28;20029;-81
2022/09/01 04:24:27;;;;;;;0.70;0.10;;;19.20;63.40;;;;;;5036229;28;20432;-80
2022/09/01 04:26:55;;;;;;;1.08;0.20;;;19.40;64.20;;;;;;5036655;28;20041;-81
2022/09/01 04:29:27;;;;;;;1.35;0.30;;;19.50;62.90;;;;;;5036333;28;20048;-80
2022/09/01 04:31:55;;;;;;;1.15;0.40;;;19.50;61.80;;;;;;5036655;28;20030;-80
2022/09/01 04:34:21;;;;;;;0.95;0.30;;;19.40;62.50;;;;;;5036131;28;20397;-81
2022/09/01 04:36:47;;;;;;;2.17;0.30;;;19.40;62.50;;;;;;5036491;28;20025;-80
2022/09/01 04:39:13;;;;;;;2.42;0.57;;;19.40;63.30;;;;;;5035896;28;20465;-80
2022/09/01 04:41:44;;;;;;;0.82;0.20;;;19.10;62.70;;;;;;5036250;28;20058;-80
2022/09/01 04:44:11;;;;;;;1.02;0.20;;;19.00;63.70;;;;;;5035982;28;20563;-81
2022/09/01 04:46:46;;;;;;;0.60;0.10;;;19.10;63.80;;;;;;5036032;28;20072;-81
2022/09/01 04:49:18;;;;;;;2.00;0.43;;;19.20;64.20;;;;;;5036194;28;20381;-81
2022/09/01 04:51:47;;;;;;;3.33;0.20;;;19.30;64.10;;;;;;5035949;28;20102;-81
2022/09/01 04:54:13;;;;;;;1.10;0.28;;;19.40;62.90;;;;;;5036057;28;20026;-81
2022/09/01 04:56:42;;;;;;;1.15;0.30;;;19.40;62.50;;;;;;5035560;28;20033;-81
2022/09/01 04:59:09;;;;;;;1.77;0.25;;;19.40;62.60;;;;;;5035781;28;20113;-81
2022/09/01 05:01:45;;;;;;;1.15;0.28;;;19.40;62.40;;;;;;5035616;28;20045;-81
2022/09/01 05:04:23;;;;;;;0.60;0.15;;;19.40;62.80;;;;;;5035843;28;20097;-81
2022/09/01 05:06:59;;;;;;;0.68;0.15;;;19.40;63.40;;;;;;5035317;28;20116;-81
2022/09/01 05:09:27;;;;;;;2.00;0.20;;;19.40;63.10;;;;;;5035753;28;20036;-81
2022/09/01 05:11:53;;;;;;;0.82;0.20;;;19.50;63.00;;;;;;5035345;28;20080;-81
2022/09/01 05:14:20;;;;;;;1.98;0.20;;;19.40;62.20;;;;;;5035552;28;20025;-81
2022/09/01 05:16:46;;;;;;;1.35;0.30;;;19.30;63.20;;;;;;5035342;28;20389;-81
2022/09/01 05:19:16;;;;;;;1.73;0.50;;;19.30;63.10;;;;;;5035161;28;20029;-81
2022/09/01 05:21:44;;;;;;;1.02;0.20;;;19.30;63.10;;;;;;5034783;28;20036;-81
2022/09/01 05:24:13;;;;;;;4.03;0.20;;;19.30;62.90;;;;;;5035495;28;20025;-81
2022/09/01 05:26:39;;;;;;;0.75;0.20;;;19.30;63.00;;;;;;5034945;28;20045;-81
2022/09/01 05:29:12;;;;;;;1.00;0.20;;;19.20;62.60;;;;;;5035007;28;20022;-81
2022/09/01 05:31:42;;;;;;;1.00;0.20;;;19.10;63.20;;;;;;5035107;28;20499;-81
2022/09/01 05:34:08;;;;;;;2.90;0.30;;;19.00;63.30;;;;;;5034897;28;20026;-82
2022/09/01 05:36:36;;;;;;;0.80;0.10;;;19.00;63.70;;;;;;5034843;28;20068;-81
2022/09/01 05:39:04;;;;;;;1.20;0.30;;;18.90;63.80;;;;;;5035399;28;20060;-81
2022/09/01 05:41:32;;;;;;;1.13;0.43;;;18.70;63.50;;;;;;5034014;28;20030;-77
2022/09/01 05:43:58;;;;;;;1.60;0.10;;;18.60;63.80;;;;;;5033577;28;20032;-77
2022/09/01 05:46:26;;;;;;;1.40;0.10;;;18.60;67.30;;;;;;5042694;28;20033;-78
2022/09/01 05:48:54;;;;;;;2.67;0.30;;;19.10;66.20;;;;;;5054907;28;20023;-80
2022/09/01 05:51:25;;;;;;;0.85;0.20;;;19.40;66.20;;;;;;5054243;28;20037;-78
2022/09/01 05:53:55;;;;;;;1.23;0.20;;;19.70;64.80;;;;;;5054566;28;20017;-79
2022/09/01 05:56:22;;;;;;;1.35;0.30;;;20.00;64.30;;;;;;5052682;28;20063;-79
2022/09/01 05:58:49;;;;;;;3.20;0.50;;;20.30;63.00;;;;;;5054392;28;20021;-80
2022/09/01 06:01:21;;;;;;;1.17;0.20;;;20.40;60.80;;;;;;5054061;28;20519;-75
2022/09/01 06:03:48;;;;;;;2.03;0.25;;;20.50;61.50;;;;;;5053719;28;20029;-76
2022/09/01 06:06:15;;;;;;;0.93;0.28;;;20.70;60.90;;;;;;5054465;28;20041;-78
2022/09/01 06:08:41;;;;;;;1.40;0.30;;;20.90;59.80;;;;;;5054062;28;20100;-79
2022/09/01 06:11:12;;;;;;;1.38;0.30;;;21.00;59.40;;;;;;5054575;28;20120;-79
2022/09/01 06:13:40;;;;;;;1.17;0.20;;;21.00;59.70;;;;;;5061931;28;20123;-82
2022/09/01 06:16:07;;;;;;;1.58;0.30;;;21.10;59.00;;;;;;5066353;28;20069;-81
2022/09/01 06:18:34;;;;;;;2.15;0.30;;;21.00;58.70;;;;;;5062022;28;20033;-82
2022/09/01 06:21:03;;;;;;;2.30;0.35;;;20.80;57.90;;;;;;5055035;28;20114;-83
2022/09/01 06:23:29;;;;;;;2.60;0.30;;;20.50;58.70;;;;;;5053797;28;20025;-83
2022/09/01 06:25:54;;;;;;;1.73;0.43;;;20.20;59.10;;;;;;5053264;28;20489;-83
2022/09/01 06:28:22;;;;;;;1.10;0.30;;;20.00;59.40;;;;;;5054722;28;20025;-78
2022/09/01 06:30:49;;;;;;;1.48;0.52;;;20.00;59.90;;;;;;5054229;28;20025;-78
2022/09/01 06:33:15;;;;;;;1.33;0.30;;;19.80;60.10;;;;;;5066360;28;20749;-79
2022/09/01 06:35:43;;;;;;;2.22;0.38;;;19.70;60.50;;;;;;5070365;28;20376;-78
2022/09/01 06:38:10;;;;;;;1.50;0.35;;;19.60;60.60;;;;;;5069355;28;20021;-78
2022/09/01 06:40:39;;;;;;;3.85;0.70;;;19.60;61.10;;;;;;5066186;28;20022;-76
2022/09/01 06:43:08;;;;;;;1.10;0.40;;;19.60;61.00;;;;;;5061921;28;20098;-83
2022/09/01 06:45:42;;;;;;;2.58;0.40;;;19.60;61.10;;;;;;5053293;28;20033;-83
2022/09/01 06:48:08;;;;;;;1.92;0.30;;;19.60;61.10;;;;;;5054606;28;20036;-83
2022/09/01 06:50:34;;;;;;;3.22;0.65;;;19.70;60.90;;;;;;5053234;28;20013;-83
2022/09/01 06:53:09;;;;;;;3.13;0.40;;;19.80;61.00;;;;;;5053789;28;20025;-83
2022/09/01 06:55:36;;;;;;;1.38;0.35;;;19.70;60.60;;;;;;5049765;28;20040;-83
2022/09/01 06:58:05;;;;;;;1.90;0.30;;;19.60;61.00;;;;;;5058836;28;20063;-83
2022/09/01 07:00:34;;;;;;;3.03;0.30;;;19.70;61.30;;;;;;5069724;28;20033;-79
2022/09/01 07:03:08;;;;;;;2.08;0.32;;;19.60;61.60;;;;;;5069835;28;20491;-84
2022/09/01 07:05:38;;;;;;;1.63;0.30;;;19.70;61.70;;;;;;5067595;28;20037;-85
2022/09/01 07:08:08;;;;;;;2.13;0.30;;;19.70;62.00;;;;;;5068591;28;20035;-77
2022/09/01 07:10:43;;;;;;;3.63;0.40;;;19.70;61.70;;;;;;5056264;28;20025;-77
2022/09/01 07:13:17;;;;;;;1.27;0.20;;;20.00;62.60;;;;;;5061443;28;20039;-78
2022/09/01 07:15:43;;;;;;;3.45;0.30;;;20.30;62.30;;;;;;5062813;28;20032;-78
2022/09/01 07:18:11;;;;;;;2.00;0.40;;;20.60;61.90;;;;;;5069530;28;20094;-77
2022/09/01 07:20:40;;;;;;;1.88;0.40;;;20.80;60.80;;;;;;5054102;28;20475;-77
2022/09/01 07:23:07;;;;;;;1.42;0.43;;;21.00;60.00;;;;;;5068809;28;20044;-77
2022/09/01 07:25:40;;;;;;;2.10;0.30;;;21.00;59.70;;;;;;5061895;28;20124;-78
2022/09/01 07:28:07;;;;;;;2.05;0.30;;;21.00;60.00;;;;;;5054030;28;20312;-78
2022/09/01 07:30:39;;;;;;;2.10;0.40;;;21.20;59.50;;;;;;5052249;28;20433;-78
2022/09/01 07:33:10;;;;;;;8.63;1.03;;;21.30;59.30;;;;;;5055007;28;20094;-78
2022/09/01 07:35:38;;;;;;;1.10;0.30;;;21.30;59.00;;;;;;5054099;28;20037;-78
2022/09/01 07:38:08;;;;;;;1.50;0.30;;;21.40;58.70;;;;;;5053701;28;20048;-79
2022/09/01 07:40:38;;;;;;;2.05;0.50;;;21.40;58.90;;;;;;5052752;28;20036;-79
2022/09/01 07:43:14;;;;;;;2.55;0.30;;;21.50;59.10;;;;;;5062956;28;20020;-82
2022/09/01 07:45:45;;;;;;;1.00;0.22;;;21.60;58.60;;;;;;5073641;28;20498;-80
2022/09/01 07:48:11;;;;;;;1.25;0.20;;;21.50;58.70;;;;;;5074412;28;20028;-78
2022/09/01 07:50:46;;;;;;;2.30;0.35;;;21.50;58.80;;;;;;5074145;28;20032;-78
2022/09/01 07:53:18;;;;;;;2.25;0.50;;;21.50;58.60;;;;;;5059921;28;20040;-82
2022/09/01 07:55:45;;;;;;;2.30;0.30;;;21.60;58.60;;;;;;5068743;28;20032;-78
2022/09/01 07:58:12;;;;;;;2.42;0.50;;;21.60;58.40;;;;;;5065742;28;20024;-78
2022/09/01 08:00:39;;;;;;;1.73;0.38;;;21.60;58.60;;;;;;5069576;28;20158;-78
2022/09/01 08:03:05;;;;;;;3.97;0.40;;;21.80;58.60;;;;;;5058000;28;20517;-77
2022/09/01 08:05:31;;;;;;;4.43;0.30;;;21.80;58.70;;;;;;5062692;28;20068;-78
2022/09/01 08:07:57;;;;;;;3.20;0.30;;;21.80;58.40;;;;;;5072993;28;20054;-81
2022/09/01 08:10:23;;;;;;;4.65;0.40;;;21.90;58.30;;;;;;5072957;28;20016;-80
2022/09/01 08:12:49;;;;;;;1.83;0.40;;;22.00;58.30;;;;;;5070752;28;20428;-81
2022/09/01 08:15:16;;;;;;;2.05;0.30;;;22.10;58.00;;;;;;5062906;28;20475;-81
2022/09/01 08:17:42;;;;;;;1.67;0.30;;;22.20;57.70;;;;;;5061793;28;20499;-80
2022/09/01 08:20:08;;;;;;;2.30;0.40;;;22.20;57.50;;;;;;5057064;28;20028;-80
2022/09/01 08:22:36;;;;;;;2.90;0.55;;;22.40;57.80;;;;;;5057417;28;20056;-80
2022/09/01 08:25:07;;;;;;;2.50;0.30;;;22.40;57.40;;;;;;5053176;28;20069;-76
2022/09/01 08:27:35;;;;;;;2.63;0.30;;;22.50;58.20;;;;;;5060289;28;20051;-79
2022/09/01 08:30:03;;;;;;;2.92;0.35;;;22.60;57.60;;;;;;5055194;28;20029;-79
2022/09/01 08:32:29;;;;;;;3.63;0.50;;;22.60;57.10;;;;;;5053284;28;20480;-79
2022/09/01 08:34:55;;;;;;;2.85;0.30;;;22.60;56.60;;;;;;5059419;28;20112;-79
2022/09/01 08:37:21;;;;;;;3.47;0.30;;;22.80;57.10;;;;;;5063231;28;20035;-79
2022/09/01 08:39:48;;;;;;;3.30;0.30;;;22.80;56.70;;;;;;5059261;28;20111;-78
2022/09/01 08:42:34;;;;;;;2.83;0.38;;;22.90;56.30;;;;;;5063081;28;20029;-79
2022/09/01 08:45:48;;;;;;;2.83;0.50;;;22.90;56.80;;;;;;5058856;28;20091;-79
2022/09/01 08:48:23;;;;;;;2.10;0.30;;;23.00;54.80;;;;;;5052696;28;20057;-81
2022/09/01 08:50:59;;;;;;;1.85;0.40;;;22.90;55.50;;;;;;5064136;28;20053;-80
2022/09/01 08:53:25;;;;;;;4.38;0.50;;;23.00;55.30;;;;;;5054597;28;20033;-79
2022/09/01 08:55:55;;;;;;;3.30;0.30;;;23.10;55.00;;;;;;5067937;28;20030;-78
2022/09/01 08:58:21;;;;;;;1.73;0.20;;;23.20;55.20;;;;;;5058318;28;20376;-81
2022/09/01 09:00:55;;;;;;;3.15;0.47;;;23.30;54.60;;;;;;5055834;28;20025;-80
2022/09/01 09:03:45;;;;;;;1.73;0.60;;;23.30;54.30;;;;;;5055275;28;20517;-80
2022/09/01 09:06:29;;;;;;;2.25;0.40;;;23.40;54.60;;;;;;5035504;28;20037;-79
2022/09/01 09:09:02;;;;;;;6.95;0.80;;;23.50;55.20;;;;;;5035754;28;20034;-79
2022/09/01 09:11:50;;;;;;;2.05;0.30;;;23.70;53.90;;;;;;5035506;28;20029;-79
2022/09/01 09:14:30;;;;;;;2.75;0.30;;;23.80;52.20;;;;;;5038241;28;20484;-79
2022/09/01 09:16:56;;;;;;;2.40;0.30;;;23.80;52.80;;;;;;5055585;28;20060;-77
2022/09/01 09:19:35;;;;;;;3.22;0.32;;;23.90;52.40;;;;;;5055436;28;20021;-78
2022/09/01 09:22:05;;;;;;;2.20;0.30;;;23.90;52.70;;;;;;5055275;28;20571;-79
2022/09/01 09:24:51;;;;;;;2.65;0.38;;;24.10;51.10;;;;;;5054901;28;20476;-78
2022/09/01 09:27:22;;;;;;;2.55;0.20;;;24.20;50.20;;;;;;5054790;28;20546;-80
2022/09/01 09:29:54;;;;;;;0.73;0.30;;;24.20;50.20;;;;;;5055025;28;20021;-80
2022/09/01 09:32:22;;;;;;;2.08;0.20;;;24.30;49.90;;;;;;5055031;28;20107;-79
2022/09/01 09:34:48;;;;;;;1.17;0.20;;;24.30;50.50;;;;;;5055144;28;20060;-80
2022/09/01 09:37:27;;;;;;;3.55;0.20;;;24.40;50.50;;;;;;5054948;28;20044;-79
2022/09/01 09:40:20;;;;;;;1.55;0.17;;;24.50;50.40;;;;;;5054669;28;20032;-80
2022/09/01 09:42:55;;;;;;;6.25;0.57;;;24.70;50.10;;;;;;5053897;28;20064;-82
2022/09/01 09:45:25;;;;;;;4.43;0.30;;;24.80;50.00;;;;;;5054815;28;20021;-80
2022/09/01 09:47:52;;;;;;;1.13;0.30;;;24.90;50.10;;;;;;5055007;28;20400;-82
2022/09/01 09:50:26;;;;;;;8.95;0.50;;;25.00;48.40;;;;;;5058045;28;20032;-78
2022/09/01 09:53:09;;;;;;;1.15;0.20;;;25.10;47.40;;;;;;5057969;28;20030;-79
2022/09/01 09:55:35;;;;;;;0.98;0.20;;;25.20;46.60;;;;;;5059471;28;20543;-78
2022/09/01 09:58:09;;;;;;;2.38;0.20;;;25.40;46.20;;;;;;5065523;28;20053;-78
2022/09/01 10:00:35;;;;;;;0.77;0.17;;;25.40;46.60;;;;;;5054053;28;20052;-79
2022/09/01 10:03:07;;;;;;;2.63;0.20;;;25.60;47.30;;;;;;5056448;28;20045;-84
2022/09/01 10:05:47;;;;;;;1.08;0.20;;;25.70;46.00;;;;;;5054890;28;20123;-82
2022/09/01 10:08:43;;;;;;;3.03;0.20;;;25.70;46.40;;;;;;5061127;28;20142;-79
2022/09/01 10:11:10;;;;;;;2.13;0.15;;;25.90;46.90;;;;;;5069007;28;20470;-83
2022/09/01 10:13:35;;;;;;;1.05;0.25;;;25.90;46.10;;;;;;5061796;28;20067;-78
2022/09/01 10:16:06;;;;;;;1.95;0.20;;;25.90;45.30;;;;;;5068255;28;20052;-83
2022/09/01 10:18:41;;;;;;;0.70;0.10;;;25.90;45.20;;;;;;5067007;28;20032;-81
2022/09/01 10:21:31;;;;;;;1.15;0.10;;;26.00;44.40;;;;;;5071033;28;20021;-82
2022/09/01 10:23:58;;;;;;;1.80;0.30;;;26.00;45.50;;;;;;5060585;28;20571;-77
2022/09/01 10:26:34;;;;;;;2.05;0.13;;;26.00;45.20;;;;;;5057758;28;20124;-78
2022/09/01 10:29:15;;;;;;;1.48;0.10;;;25.90;43.70;;;;;;5061904;28;20036;-78
2022/09/01 10:31:41;;;;;;;1.55;0.20;;;25.90;45.20;;;;;;5053721;28;20072;-81
2022/09/01 10:34:14;;;;;;;2.55;0.20;;;26.00;45.10;;;;;;5055613;28;20100;-82
2022/09/01 10:36:41;;;;;;;0.95;0.15;;;26.10;45.10;;;;;;5057628;28;20098;-82
2022/09/01 10:39:12;;;;;;;1.95;0.10;;;26.20;44.60;;;;;;5066245;28;20043;-82
2022/09/01 10:41:51;;;;;;;1.45;0.10;;;26.40;44.10;;;;;;5057255;28;20028;-82
2022/09/01 10:44:35;;;;;;;1.27;0.10;;;26.50;44.30;;;;;;5070455;28;20051;-83
2022/09/01 10:47:25;;;;;;;2.30;0.17;;;26.50;43.30;;;;;;5054100;28;20037;-81
2022/09/01 10:49:51;;;;;;;0.28;0.10;;;26.60;43.00;;;;;;5061642;28;20115;-81
2022/09/01 10:52:41;;;;;;;3.65;0.22;;;26.50;43.40;;;;;;5063516;28;20119;-81
2022/09/01 10:55:42;;;;;;;0.93;0.30;;;26.50;44.10;;;;;;5071645;28;20029;-82
2022/09/01 10:58:28;;;;;;;1.25;0.20;;;26.60;44.00;;;;;;5037897;28;20041;-81
2022/09/01 11:00:54;;;;;;;2.22;0.22;;;26.80;44.10;;;;;;5057913;28;20032;-78
2022/09/01 11:03:20;;;;;;;1.88;0.30;;;26.80;42.90;;;;;;5062991;28;20034;-78
2022/09/01 11:05:54;;;;;;;3.92;0.25;;;26.80;43.10;;;;;;5064305;28;20495;-77
2022/09/01 11:08:42;;;;;;;1.42;0.20;;;26.90;44.20;;;;;;5073497;28;20062;-78
2022/09/01 11:11:24;;;;;;;0.70;0.20;;;27.10;43.50;;;;;;5072538;28;20036;-78
2022/09/01 11:13:53;;;;;;;2.67;0.20;;;27.20;42.70;;;;;;5073326;28;20028;-78
2022/09/01 11:16:39;;;;;;;2.58;0.20;;;27.40;43.40;;;;;;5073042;28;20036;-78
2022/09/01 11:19:30;;;;;;;2.88;0.10;;;27.30;42.60;;;;;;5032923;28;20496;-78
2022/09/01 11:22:31;;;;;;;1.98;0.10;;;27.10;42.50;;;;;;5033122;28;20033;-79
2022/09/01 11:25:12;;;;;;;2.10;0.10;;;27.00;43.20;;;;;;5032814;28;20387;-78
2022/09/01 11:28:05;;;;;;;0.63;0.10;;;27.10;43.20;;;;;;5032569;28;20049;-78
2022/09/01 11:30:51;;;;;;;2.90;0.10;;;27.20;43.20;;;;;;5033325;28;20025;-78
2022/09/01 11:33:34;;;;;;;2.83;0.20;;;27.30;42.60;;;;;;5033278;28;20460;-77
2022/09/01 11:36:04;;;;;;;1.23;0.10;;;27.40;42.50;;;;;;5032957;28;20496;-77
2022/09/01 11:38:50;;;;;;;3.63;0.15;;;27.40;42.00;;;;;;5032815;28;20034;-79
2022/09/01 11:41:43;;;;;;;3.40;0.63;;;27.50;42.00;;;;;;5037172;28;20091;-77
2022/09/01 11:44:25;;;;;;;1.88;0.15;;;27.30;41.90;;;;;;5049162;28;20036;-78
2022/09/01 11:46:57;;;;;;;3.33;0.22;;;27.40;41.90;;;;;;5072750;28;20041;-78
2022/09/01 11:49:38;;;;;;;1.48;0.38;;;27.50;41.60;;;;;;5032889;28;20026;-77
2022/09/01 11:52:05;;;;;;;0.50;0.20;;;27.50;42.10;;;;;;5032914;28;20465;-78
2022/09/01 11:54:41;;;;;;;2.85;0.25;;;27.70;41.90;;;;;;5055560;28;20028;-78
2022/09/01 11:57:21;;;;;;;1.95;0.20;;;27.70;42.30;;;;;;5072711;28;20391;-78
2022/09/01 11:59:46;;;;;;;1.55;0.20;;;27.70;43.20;;;;;;5072654;28;20025;-77
2022/09/01 12:02:24;;;;;;;2.13;0.20;;;27.70;41.80;;;;;;5060710;28;20113;-78
2022/09/01 12:04:53;;;;;;;1.58;0.30;;;27.90;42.30;;;;;;5052816;28;20028;-78
2022/09/01 12:07:46;;;;;;;1.95;0.20;;;28.00;42.30;;;;;;5054684;28;20041;-79
2022/09/01 12:10:26;;;;;;;0.93;0.20;;;28.20;41.20;;;;;;5056888;28;20125;-78
2022/09/01 12:13:11;;;;;;;1.80;0.30;;;28.20;41.60;;;;;;5032999;28;20424;-78
2022/09/01 12:15:41;;;;;;;2.33;0.30;;;28.20;40.60;;;;;;5054036;28;20427;-78
2022/09/01 12:18:21;;;;;;;1.85;0.20;;;28.20;41.90;;;;;;5072216;28;20032;-80
2022/09/01 12:20:49;;;;;;;1.67;0.20;;;28.30;41.00;;;;;;5072583;28;20101;-81
2022/09/01 12:23:28;;;;;;;2.55;0.20;;;28.30;40.90;;;;;;5069387;28;20036;-79
2022/09/01 12:25:57;;;;;;;2.72;0.20;;;28.20;41.30;;;;;;5052539;28;20123;-78
2022/09/01 12:28:25;;;;;;;1.65;0.20;;;28.10;41.50;;;;;;5055646;28;20029;-78
2022/09/01 12:30:52;;;;;;;2.38;0.32;;;28.10;41.50;;;;;;5055495;28;20025;-78
2022/09/01 12:33:18;;;;;;;1.92;0.15;;;28.20;41.10;;;;;;5056818;28;20480;-77
2022/09/01 12:35:45;;;;;;;1.27;0.10;;;28.10;41.40;;;;;;5055058;28;20041;-78
2022/09/01 12:38:19;;;;;;;2.13;0.20;;;28.10;42.60;;;;;;5070692;28;20039;-78
2022/09/01 12:40:49;;;;;;;2.53;0.20;;;28.30;42.30;;;;;;5071789;28;20103;-78
2022/09/01 12:43:37;;;;;;;2.28;0.30;;;28.40;42.30;;;;;;5063877;28;20051;-78
2022/09/01 12:46:05;;;;;;;1.92;0.20;;;28.20;41.80;;;;;;5064580;28;20032;-78
2022/09/01 12:48:33;;;;;;;0.68;0.20;;;28.20;41.40;;;;;;5057662;28;20083;-77
2022/09/01 12:51:24;;;;;;;3.80;0.28;;;28.30;41.80;;;;;;5057903;28;20484;-77
2022/09/01 12:53:54;;;;;;;0.40;0.10;;;28.30;41.50;;;;;;5071961;28;20391;-78
2022/09/01 12:56:30;;;;;;;0.77;0.20;;;28.50;41.10;;;;;;5056499;28;20051;-78
2022/09/01 12:59:14;;;;;;;2.45;0.20;;;28.60;40.50;;;;;;5064069;28;20029;-77
2022/09/01 13:01:42;;;;;;;0.80;0.20;;;28.60;40.10;;;;;;5064532;28;20059;-77
2022/09/01 13:04:20;;;;;;;0.65;0.10;;;28.70;39.80;;;;;;5070527;28;20036;-79
2022/09/01 13:06:46;;;;;;;1.17;0.20;;;28.60;39.30;;;;;;5064005;28;20044;-79
2022/09/01 13:09:11;;;;;;;3.95;0.20;;;28.60;38.30;;;;;;5054988;28;20017;-78
2022/09/01 13:11:38;;;;;;;3.28;0.20;;;28.60;38.80;;;;;;5056234;28;20033;-77
2022/09/01 13:14:03;;;;;;;1.42;0.30;;;28.60;39.00;;;;;;5061122;28;20021;-78